• Join FlightAware (Why Join?)
  • Login
  • US Flag 
01:28PM EDT


 

Airport Tracker/Info


-or-


 

Live Flight TrackerFlight Track Log ✈ N983CA ✈ 22-Apr-2013 ✈ KLAX - KFAT

Flight Track Log - Related Links

Times and Time Zones

All times are in EDT time to prevent confusion due to time zone crossing. See the N983CA flight status page for this flight to view local times or setup timezone preferences in your user account.

Time Position Orientation Groundspeed Altitude Reporting Facility
EDT Latitude Longitude Course Direction KTS MPH feet Rate Location/Type
04:06AM 33.8803 -118.4914 216° Southwest 190 219 5,700  Level Los Angeles Center
04:07AM 34.0676 -118.8940 296° West  Level FlightAware Approximate
04:07AM 33.8361 -118.5364 220° Southwest 219 252 8,500  Level Los Angeles Center
04:08AM 34.1000 -119.0171 270° West  Level FlightAware Approximate
04:08AM 33.8247 -118.6039 259° West 221 254 10,900  Level Los Angeles Center
04:09AM 34.1896 -119.0500 North  Level FlightAware Approximate
04:09AM 33.8550 -118.6678 300° West 243 280 13,600  Level Los Angeles Center
04:10AM 34.2975 -119.0500 North  Level FlightAware Approximate
04:10AM 33.9300 -118.6997 341° North 293 337 14,500  Level Los Angeles Center
04:11AM 34.0225 -118.7253 347° North 338 389 15,600 1,200 Climbing Los Angeles Center
04:12AM 34.1144 -118.7528 346° North 359 413 17,000 1,560 Climbing Los Angeles Center
04:13AM 34.2131 -118.7806 347° North 361 415 18,800 1,440 Climbing Los Angeles Center
04:14AM 34.3158 -118.8111 346° North 377 434 20,000 1,200 Climbing Los Angeles Center
04:15AM 34.4208 -118.8422 346° North 385 443 21,200 1,140 Climbing Los Angeles Center
04:16AM 34.5269 -118.8728 347° North 392 451 22,400 1,140 Climbing Los Angeles Center
04:17AM 34.6325 -118.9047 346° North 391 450 23,500 1,200 Climbing Los Angeles Center
04:18AM 34.7394 -118.9381 346° North 395 455 24,900 1,200 Climbing Los Angeles Center
04:19AM 34.8464 -118.9697 346° North 395 455 26,000 540 Climbing Los Angeles Center
04:20AM 34.9547 -119.0031 346° North 400 460 26,000  Level Los Angeles Center
04:21AM 35.0725 -119.0378 346° North 425 489 26,000  Level Los Angeles Center
04:22AM 35.1947 -119.0742 346° North 446 513 26,000  Level Los Angeles Center
04:23AM 35.3178 -119.1114 346° North 454 522 26,000  Level Los Angeles Center
04:24AM 35.4658 -119.1556 346° North 458 527 26,000  Level Los Angeles Center
04:25AM 35.5878 -119.1925 346° North 456 525 26,000  Level Los Angeles Center
04:26AM 35.7069 -119.2283 346° North 450 518 26,000  Level Los Angeles Center
04:26AM 35.7281 -119.2350 346° North 451 519 26,000 -2,340 Level Oakland Center
04:27AM 35.8497 -119.2728 346° North 453 521 23,000 -3,180 Descending Oakland Center
04:28AM 35.9653 -119.3103 345° North 446 513 19,700 -3,360 Descending Oakland Center
04:29AM 36.0758 -119.3433 346° North 420 483 16,300 -2,040 Descending Oakland Center
04:30AM 36.1697 -119.3717 346° North 343 395 15,600 -1,860 Descending Oakland Center
04:31AM 36.2567 -119.3989 346° North 326 375 12,600 -2,700 Descending Oakland Center
04:32AM 36.3450 -119.4269 346° North 328 377 10,300 -1,920 Descending Oakland Center
04:33AM 36.4194 -119.4503 346° North 280 322 8,800 -1,860 Descending Oakland Center
04:34AM 36.4906 -119.4858 338° Northwest 277 319 6,600 -1,740 Descending Oakland Center
04:36AM 36.6172 -119.5697 332° Northwest 257 296 3,700 -900 Descending Oakland Center
04:37AM 36.6728 -119.6061 332° Northwest 225 259 3,900 180 Climbing Oakland Center